Terminal Aerodrome Forecast
Issued by NWS Oklahoma City, OK

Home | Current Version | Previous Version | Text Only | Print | Product List | Glossary On
Versions: 1 2 3 4 5 6 7 8 9 10 11 12 13 14 15 16 17 18 19 20 21 22 23 24 25 26
000
FTUS44 KOUN 201730
TAFOUN
TAF
KOUN 201730Z 2018/2118 17010KT P6SM BKN040
     FM210000 15005KT P6SM SCT250
     FM210900 27006KT 3SM BR SCT005 SCT030
     FM211500 01010KT P6SM SCT040=

USA.gov is the U.S. government's official web portal to all federal, state and local government web resources and services.